Time;durP1;ratioP1;P1;durP2;ratioP2;P2;SDS_P1;SDS_P2;PMS_P1;PMS_P2;Temp;Humidity;BMP_temperature;BMP_pressure;BME280_temperature;BME280_humidity;BME280_pressure;Samples;Min_cycle;Max_cycle;Signal;HPM_P1;HPM_P2
2024/01/31 00:01:37;;;;;;;1999.90;999.90;;;5.60;99.90;;;;;;5000127;28;20040;-84
2024/01/31 00:04:06;;;;;;;1999.90;999.90;;;5.60;99.90;;;;;;4999455;28;20053;-84
2024/01/31 00:06:31;;;;;;;1999.90;999.90;;;5.60;99.90;;;;;;4998899;28;20041;-84
2024/01/31 00:09:00;;;;;;;1999.90;999.90;;;5.60;99.90;;;;;;4999934;28;20056;-84
2024/01/31 00:11:28;;;;;;;1999.90;999.90;;;5.60;99.90;;;;;;5015176;28;20041;-83
2024/01/31 00:13:57;;;;;;;1999.90;999.90;;;6.40;99.90;;;;;;5015873;28;20049;-84
2024/01/31 00:16:22;;;;;;;1999.90;999.90;;;5.60;99.90;;;;;;5025231;28;20054;-84
2024/01/31 00:18:50;;;;;;;1999.90;999.90;;;5.70;99.90;;;;;;4997985;28;20053;-82
2024/01/31 00:21:19;;;;;;;1999.90;999.90;;;5.60;99.90;;;;;;4999736;28;20034;-84
2024/01/31 00:23:48;;;;;;;1999.90;999.90;;;5.60;99.90;;;;;;5016013;28;20088;-84
2024/01/31 00:26:14;;;;;;;1999.90;999.90;;;5.60;99.90;;;;;;4999883;28;20467;-84
2024/01/31 00:28:39;;;;;;;1999.90;999.90;;;5.60;99.90;;;;;;5015812;28;20048;-83
2024/01/31 00:31:05;;;;;;;1999.90;999.90;;;5.60;99.90;;;;;;4998855;28;20134;-84
2024/01/31 00:33:30;;;;;;;1999.90;999.90;;;6.30;99.90;;;;;;5016116;28;20033;-84
2024/01/31 00:35:56;;;;;;;1999.90;999.90;;;5.60;99.90;;;;;;4997517;28;20038;-84
2024/01/31 00:38:22;;;;;;;1999.90;999.90;;;5.90;99.90;;;;;;4999091;28;20033;-83
2024/01/31 00:40:47;;;;;;;1999.90;999.90;;;5.60;99.90;;;;;;5031987;28;20042;-84
2024/01/31 00:43:13;;;;;;;1999.90;999.90;;;5.60;99.90;;;;;;5015560;28;20097;-84
2024/01/31 00:45:38;;;;;;;1999.90;999.90;;;5.60;99.90;;;;;;5017891;28;20602;-83
2024/01/31 00:48:04;;;;;;;1999.90;999.90;;;6.20;99.90;;;;;;5011532;28;20457;-84
2024/01/31 00:50:30;;;;;;;1999.90;999.90;;;5.60;99.90;;;;;;5016157;28;20070;-84
2024/01/31 00:52:56;;;;;;;1999.90;999.90;;;5.90;99.90;;;;;;4998865;28;20070;-83
2024/01/31 00:55:22;;;;;;;1999.90;999.90;;;5.60;99.90;;;;;;4998084;28;20045;-83
2024/01/31 00:57:48;;;;;;;1999.90;999.90;;;5.60;99.90;;;;;;4998779;28;20495;-83
2024/01/31 01:00:14;;;;;;;1999.90;999.90;;;5.80;99.90;;;;;;4998579;28;20130;-84
2024/01/31 01:02:40;;;;;;;1999.90;999.90;;;5.60;99.90;;;;;;4998115;28;20061;-84
2024/01/31 01:05:10;;;;;;;1999.90;999.90;;;5.60;99.90;;;;;;5015919;28;20096;-83
2024/01/31 01:07:39;;;;;;;1999.90;999.90;;;5.60;99.90;;;;;;5000894;28;20503;-83
2024/01/31 01:10:06;;;;;;;1999.90;999.90;;;5.60;99.90;;;;;;4998774;28;20049;-83
2024/01/31 01:12:32;;;;;;;1999.90;999.90;;;5.50;99.90;;;;;;5014620;28;20533;-84
2024/01/31 01:14:57;;;;;;;1999.90;999.90;;;5.90;99.90;;;;;;4998526;28;20050;-84
2024/01/31 01:17:23;;;;;;;1999.90;999.90;;;5.50;99.90;;;;;;5014651;28;20046;-84
2024/01/31 01:19:49;;;;;;;1999.90;999.90;;;5.50;99.90;;;;;;5002350;28;20106;-83
2024/01/31 01:22:14;;;;;;;1999.90;999.90;;;5.70;99.90;;;;;;5020254;28;20045;-84
2024/01/31 01:24:40;;;;;;;1999.90;999.90;;;5.60;99.90;;;;;;5018351;28;20042;-84
2024/01/31 01:27:05;;;;;;;1999.90;999.90;;;5.50;99.90;;;;;;5001225;28;20503;-84
2024/01/31 01:29:31;;;;;;;1999.90;999.90;;;5.50;99.90;;;;;;5002266;28;20538;-84
2024/01/31 01:31:57;;;;;;;1999.90;999.90;;;5.50;99.90;;;;;;5000717;28;20042;-84
2024/01/31 01:34:22;;;;;;;1999.90;999.90;;;6.40;99.90;;;;;;5003084;28;20149;-83
2024/01/31 01:36:48;;;;;;;1999.90;999.90;;;5.50;99.90;;;;;;5017235;28;20060;-83
2024/01/31 01:39:13;;;;;;;1999.90;999.90;;;5.50;99.90;;;;;;5016198;28;20132;-83
2024/01/31 01:41:39;;;;;;;1999.90;999.90;;;5.50;99.90;;;;;;5002107;28;20411;-83
2024/01/31 01:44:05;;;;;;;1999.90;999.90;;;5.50;99.90;;;;;;5002715;28;20040;-83
2024/01/31 01:46:35;;;;;;;1999.90;999.90;;;6.20;99.90;;;;;;5018796;28;20034;-83
2024/01/31 01:49:01;;;;;;;1999.90;999.90;;;5.40;99.90;;;;;;5011436;28;20042;-84
2024/01/31 01:51:30;;;;;;;1999.90;999.90;;;5.50;99.90;;;;;;5017924;28;20050;-83
2024/01/31 01:53:55;;;;;;;1999.90;999.90;;;5.40;99.90;;;;;;5001784;28;20418;-83
2024/01/31 01:56:22;;;;;;;1999.90;999.90;;;5.40;99.90;;;;;;5017573;28;20038;-83
2024/01/31 01:58:48;;;;;;;1999.90;999.90;;;5.80;99.90;;;;;;5017031;28;20046;-84
2024/01/31 02:01:17;;;;;;;1999.90;999.90;;;5.40;99.90;;;;;;5016884;28;20037;-83
2024/01/31 02:03:43;;;;;;;1999.90;999.90;;;5.40;99.90;;;;;;5001735;28;20556;-83
2024/01/31 02:06:09;;;;;;;1999.90;999.90;;;5.40;99.90;;;;;;5001632;28;20041;-83
2024/01/31 02:08:35;;;;;;;1999.90;999.90;;;5.40;99.90;;;;;;5001975;28;20038;-84
2024/01/31 02:11:01;;;;;;;1999.90;999.90;;;6.30;99.90;;;;;;5001192;28;20071;-83
2024/01/31 02:13:28;;;;;;;1999.90;999.90;;;5.40;99.90;;;;;;5017608;28;20053;-84
2024/01/31 02:15:55;;;;;;;1999.90;999.90;;;5.30;99.90;;;;;;5001068;28;20053;-84
2024/01/31 02:18:28;;;;;;;1999.90;999.90;;;5.30;99.90;;;;;;5017517;28;20046;-84
2024/01/31 02:20:54;;;;;;;1999.90;999.90;;;5.60;99.90;;;;;;5001072;28;20088;-84
2024/01/31 02:23:21;;;;;;;1999.90;999.90;;;5.20;99.90;;;;;;5017696;28;20130;-84
2024/01/31 02:25:48;;;;;;;1999.90;999.90;;;5.20;99.90;;;;;;5016901;28;20049;-84
2024/01/31 02:28:14;;;;;;;1999.90;999.90;;;5.20;99.90;;;;;;5000831;28;20050;-83
2024/01/31 02:30:40;;;;;;;1999.90;999.90;;;5.20;99.90;;;;;;5018504;28;20969;-83
2024/01/31 02:33:06;;;;;;;1999.90;999.90;;;5.20;99.90;;;;;;5004402;28;20142;-83
2024/01/31 02:35:33;;;;;;;1999.90;999.90;;;5.10;99.90;;;;;;5003995;28;20065;-84
2024/01/31 02:38:02;;;;;;;1999.90;999.90;;;5.70;99.90;;;;;;5003515;28;20069;-83
2024/01/31 02:40:31;;;;;;;1999.90;999.90;;;5.00;99.90;;;;;;5004947;28;20037;-83
2024/01/31 02:42:57;;;;;;;1999.90;999.90;;;5.60;99.90;;;;;;5020029;28;20410;-83
2024/01/31 02:45:24;;;;;;;1999.90;999.90;;;5.80;99.90;;;;;;5016185;28;20041;-83
2024/01/31 02:47:50;;;;;;;1999.90;999.90;;;4.90;99.90;;;;;;5020512;28;20037;-83
2024/01/31 02:50:16;;;;;;;1999.90;999.90;;;4.90;99.90;;;;;;5021208;28;20654;-83
2024/01/31 02:52:43;;;;;;;1999.90;999.90;;;4.80;99.90;;;;;;5002386;28;20125;-83
2024/01/31 02:55:11;;;;;;;1999.90;999.90;;;4.80;99.90;;;;;;5004456;28;20034;-83
2024/01/31 02:57:36;;;;;;;1999.90;999.90;;;4.00;99.90;;;;;;5019347;28;20125;-83
2024/01/31 03:00:09;;;;;;;1999.90;999.90;;;5.50;99.90;;;;;;5020210;28;20070;-83
2024/01/31 03:02:43;;;;;;;1999.90;999.90;;;4.60;99.90;;;;;;4988815;28;20033;-84
2024/01/31 03:05:09;;;;;;;1999.90;999.90;;;5.60;99.90;;;;;;5002989;28;20072;-82
2024/01/31 03:07:41;;;;;;;1999.90;999.90;;;4.50;99.90;;;;;;5003603;28;20049;-84
2024/01/31 03:10:09;;;;;;;1999.90;999.90;;;4.50;99.90;;;;;;5002823;28;20450;-83
2024/01/31 03:12:35;;;;;;;1999.90;999.90;;;4.40;99.90;;;;;;5003418;28;20046;-82
2024/01/31 03:15:01;;;;;;;1999.90;999.90;;;5.10;99.90;;;;;;5018619;28;20133;-82
2024/01/31 03:17:27;;;;;;;1999.90;999.90;;;4.40;99.90;;;;;;5003071;28;20100;-83
2024/01/31 03:19:53;;;;;;;1999.90;999.90;;;4.40;99.90;;;;;;5003302;28;20042;-82
2024/01/31 03:22:18;;;;;;;1999.90;999.90;;;4.80;99.90;;;;;;4986853;28;20076;-82
2024/01/31 03:24:51;;;;;;;1999.90;999.90;;;4.40;99.90;;;;;;5020513;28;20034;-83
2024/01/31 03:27:18;;;;;;;1999.90;999.90;;;4.40;99.90;;;;;;5020591;28;20454;-82
2024/01/31 03:29:44;;;;;;;1999.90;999.90;;;4.30;99.90;;;;;;5019106;28;20040;-82
2024/01/31 03:32:09;;;;;;;1999.90;999.90;;;4.30;99.90;;;;;;5002725;28;20033;-82
2024/01/31 03:34:35;;;;;;;1999.90;999.90;;;4.50;99.90;;;;;;5002827;28;20042;-82
2024/01/31 03:37:05;;;;;;;1999.90;999.90;;;5.20;99.90;;;;;;5002588;28;20042;-83
2024/01/31 03:39:33;;;;;;;1999.90;999.90;;;4.20;99.90;;;;;;5019140;28;20030;-84
2024/01/31 03:41:59;;;;;;;1999.90;999.90;;;4.10;99.90;;;;;;5018981;28;20510;-83
2024/01/31 03:44:31;;;;;;;1999.90;999.90;;;4.10;99.90;;;;;;5018774;28;20038;-83
2024/01/31 03:46:56;;;;;;;1999.90;999.90;;;4.10;99.90;;;;;;5002992;28;20042;-83
2024/01/31 03:49:24;;;;;;;1999.90;999.90;;;4.00;99.90;;;;;;5019511;28;20048;-83
2024/01/31 03:51:49;;;;;;;1999.90;999.90;;;4.00;99.90;;;;;;5002822;28;20106;-83
2024/01/31 03:54:15;;;;;;;1999.90;999.90;;;4.00;99.90;;;;;;4986679;28;20073;-83
2024/01/31 03:56:42;;;;;;;1999.90;999.90;;;4.00;99.90;;;;;;5002127;28;20037;-82
2024/01/31 03:59:08;;;;;;;1999.90;999.90;;;4.00;99.90;;;;;;5019366;28;20056;-82
2024/01/31 04:01:34;;;;;;;1999.90;999.90;;;5.00;99.90;;;;;;5002284;28;20488;-83
2024/01/31 04:04:03;;;;;;;1999.90;999.90;;;5.00;99.90;;;;;;5020632;28;20121;-83
2024/01/31 04:06:29;;;;;;;1999.90;999.90;;;4.00;99.90;;;;;;5001430;28;20044;-82
2024/01/31 04:08:54;;;;;;;1999.90;999.90;;;4.00;99.90;;;;;;5052462;28;20038;-83
2024/01/31 04:11:20;;;;;;;1999.90;999.90;;;4.90;99.90;;;;;;5034887;28;20046;-83
2024/01/31 04:13:45;;;;;;;1999.90;999.90;;;4.30;99.90;;;;;;5002992;28;20042;-82
2024/01/31 04:16:15;;;;;;;1999.90;999.90;;;4.00;99.90;;;;;;5018953;28;20134;-83
2024/01/31 04:18:41;;;;;;;1999.90;999.90;;;3.80;99.90;;;;;;5001890;28;20034;-83
2024/01/31 04:21:21;;;;;;;1999.90;999.90;;;3.70;99.90;;;;;;5018734;28;20104;-82
2024/01/31 04:23:49;;;;;;;1999.90;999.90;;;3.60;99.90;;;;;;5002060;28;20042;-82
2024/01/31 04:26:14;;;;;;;1999.90;999.90;;;3.60;99.90;;;;;;5003316;28;20113;-83
2024/01/31 04:28:40;;;;;;;1999.90;999.90;;;3.70;99.90;;;;;;5001671;28;20073;-83
2024/01/31 04:31:13;;;;;;;1999.90;999.90;;;4.10;99.90;;;;;;5001562;28;20042;-83
2024/01/31 04:33:40;;;;;;;1999.90;999.90;;;3.40;99.90;;;;;;5002850;28;20528;-83
2024/01/31 04:36:06;;;;;;;1999.90;999.90;;;3.30;99.90;;;;;;5002744;28;20034;-82
2024/01/31 04:38:35;;;;;;;1999.90;999.90;;;3.20;99.90;;;;;;5018844;28;20046;-83
2024/01/31 04:41:02;;;;;;;1999.90;999.90;;;3.20;99.90;;;;;;5018826;28;20045;-83
2024/01/31 04:43:29;;;;;;;1999.90;999.90;;;3.30;99.90;;;;;;5001634;28;20521;-83
2024/01/31 04:45:55;;;;;;;1999.90;999.90;;;3.10;99.90;;;;;;5002070;28;20045;-83
2024/01/31 04:48:22;;;;;;;1999.90;999.90;;;3.00;99.90;;;;;;5017545;28;20046;-83
2024/01/31 04:50:50;;;;;;;1999.90;999.90;;;3.00;99.90;;;;;;5018209;28;20050;-82
2024/01/31 04:53:18;;;;;;;1999.90;999.90;;;3.00;99.90;;;;;;5000472;28;20064;-82
2024/01/31 04:55:46;;;;;;;1999.90;999.90;;;3.00;99.90;;;;;;5031122;28;20054;-82
2024/01/31 04:58:16;;;;;;;1999.90;999.90;;;3.00;99.90;;;;;;5033639;28;20122;-83
2024/01/31 05:00:44;;;;;;;1999.90;999.90;;;3.00;99.90;;;;;;5002055;28;20038;-84
2024/01/31 05:03:10;;;;;;;1999.90;999.90;;;3.00;99.90;;;;;;5007247;28;20029;-83
2024/01/31 05:05:36;;;;;;;1999.90;999.90;;;3.00;99.90;;;;;;5017895;28;20044;-83
2024/01/31 05:08:03;;;;;;;1999.90;999.90;;;2.90;99.90;;;;;;5033653;28;20049;-84
2024/01/31 05:10:32;;;;;;;1999.90;999.90;;;2.90;99.90;;;;;;5017631;28;20033;-83
2024/01/31 05:12:57;;;;;;;1999.90;999.90;;;2.80;99.90;;;;;;5017486;28;20060;-83
2024/01/31 05:15:29;;;;;;;1999.90;999.90;;;2.80;99.90;;;;;;5017644;28;20057;-83
2024/01/31 05:17:56;;;;;;;1999.90;999.90;;;2.80;99.90;;;;;;5000411;28;20046;-82
2024/01/31 05:20:22;;;;;;;1999.90;999.90;;;2.70;99.90;;;;;;5003094;28;20034;-83
2024/01/31 05:22:47;;;;;;;1999.90;999.90;;;2.70;99.90;;;;;;5001326;28;20108;-83
2024/01/31 05:25:13;;;;;;;1999.90;999.90;;;2.70;99.90;;;;;;5017392;28;20061;-83
2024/01/31 05:27:39;;;;;;;1999.90;999.90;;;2.70;99.90;;;;;;5017400;28;20060;-83
2024/01/31 05:30:05;;;;;;;1999.90;999.90;;;2.70;99.90;;;;;;5017613;28;20044;-84
2024/01/31 05:32:31;;;;;;;1999.90;999.90;;;2.70;99.90;;;;;;5000558;28;20038;-83
2024/01/31 05:35:00;;;;;;;1999.90;999.90;;;3.60;99.90;;;;;;5018555;28;20042;-83
2024/01/31 05:37:26;;;;;;;1999.90;999.90;;;3.40;99.90;;;;;;4994564;28;20402;-83
2024/01/31 05:39:53;;;;;;;1999.90;999.90;;;2.90;99.90;;;;;;5016278;28;20135;-83
2024/01/31 05:42:24;;;;;;;1999.90;999.90;;;3.20;99.90;;;;;;5017698;28;20113;-83
2024/01/31 05:44:53;;;;;;;1999.90;999.90;;;3.00;99.90;;;;;;5000255;28;20077;-84
2024/01/31 05:47:21;;;;;;;1999.90;999.90;;;3.10;99.90;;;;;;4996619;28;20117;-83
2024/01/31 05:49:50;;;;;;;1999.90;999.90;;;3.10;99.90;;;;;;5000829;28;20099;-83
2024/01/31 05:52:16;;;;;;;1999.90;999.90;;;3.20;99.90;;;;;;5016551;28;20034;-83
2024/01/31 05:54:43;;;;;;;1999.90;999.90;;;3.30;99.90;;;;;;5000468;28;20073;-83
2024/01/31 05:57:12;;;;;;;1999.90;999.90;;;4.50;99.90;;;;;;5015566;28;20068;-83
2024/01/31 05:59:43;;;;;;;1999.90;999.90;;;3.80;99.90;;;;;;5019010;28;20480;-83
2024/01/31 06:02:08;;;;;;;1999.90;999.90;;;3.40;99.90;;;;;;5001222;28;20184;-84
2024/01/31 06:04:35;;;;;;;1999.90;999.90;;;3.90;99.90;;;;;;5002612;28;20057;-83
2024/01/31 06:07:01;;;;;;;1999.90;999.90;;;3.40;99.90;;;;;;5005432;28;20422;-83
2024/01/31 06:09:26;;;;;;;1999.90;999.90;;;4.20;99.90;;;;;;5021113;28;20034;-86
2024/01/31 06:11:52;;;;;;;1999.90;999.90;;;3.50;99.90;;;;;;5002544;28;20048;-83
2024/01/31 06:14:18;;;;;;;1999.90;999.90;;;3.50;99.90;;;;;;5020126;28;20046;-83
2024/01/31 06:16:44;;;;;;;1999.90;999.90;;;3.60;99.90;;;;;;5019881;28;20404;-83
2024/01/31 06:19:09;;;;;;;1999.90;999.90;;;3.60;99.90;;;;;;5018217;28;20058;-84
2024/01/31 06:21:38;;;;;;;1999.90;999.90;;;4.10;99.90;;;;;;5018208;28;20041;-84
2024/01/31 06:24:04;;;;;;;1999.90;999.90;;;3.70;99.90;;;;;;5018233;28;20053;-84
2024/01/31 06:26:32;;;;;;;1999.90;999.90;;;3.70;99.90;;;;;;5003517;28;20041;-84
2024/01/31 06:29:00;;;;;;;1999.90;999.90;;;3.70;99.90;;;;;;5019936;28;20029;-84
2024/01/31 06:31:28;;;;;;;1999.90;999.90;;;3.70;99.90;;;;;;5001655;28;20098;-84
2024/01/31 06:33:54;;;;;;;1999.90;999.90;;;3.80;99.90;;;;;;5013627;28;20462;-84
2024/01/31 06:36:20;;;;;;;1999.90;999.90;;;3.80;99.90;;;;;;5001450;28;20076;-83
2024/01/31 06:38:46;;;;;;;1999.90;999.90;;;3.80;99.90;;;;;;5018827;28;20442;-84
2024/01/31 06:41:18;;;;;;;1999.90;999.90;;;3.90;99.90;;;;;;5017957;28;20042;-84
2024/01/31 06:43:44;;;;;;;1999.90;999.90;;;3.90;99.90;;;;;;5001243;28;20108;-84
2024/01/31 06:46:10;;;;;;;1999.90;999.90;;;3.90;99.90;;;;;;5014332;28;20034;-84
2024/01/31 06:48:36;;;;;;;1999.90;999.90;;;3.90;99.90;;;;;;4998389;28;20105;-84
2024/01/31 06:51:02;;;;;;;1999.90;999.90;;;4.00;99.90;;;;;;4998823;28;20126;-84
2024/01/31 06:53:29;;;;;;;1999.90;999.90;;;4.00;99.90;;;;;;5015572;28;20499;-84
2024/01/31 06:55:55;;;;;;;1999.90;999.90;;;4.10;99.90;;;;;;4997958;28;20048;-84
2024/01/31 06:58:21;;;;;;;1999.90;999.90;;;4.10;99.90;;;;;;5014828;28;20495;-84
2024/01/31 07:00:47;;;;;;;1999.90;999.90;;;4.10;99.90;;;;;;4998671;28;20048;-83
2024/01/31 07:03:12;;;;;;;1999.90;999.90;;;4.10;99.90;;;;;;4998691;28;20518;-83
2024/01/31 07:05:38;;;;;;;1999.90;999.90;;;4.20;99.90;;;;;;5011503;28;20699;-83
2024/01/31 07:08:04;;;;;;;1999.90;999.90;;;4.20;99.90;;;;;;5014646;28;20049;-83
2024/01/31 07:10:30;;;;;;;1999.90;999.90;;;4.20;99.90;;;;;;5014860;28;20533;-83
2024/01/31 07:12:55;;;;;;;1999.90;999.90;;;4.20;99.90;;;;;;4998496;28;20041;-83
2024/01/31 07:15:21;;;;;;;1999.90;999.90;;;4.30;99.90;;;;;;4997996;28;20495;-83
2024/01/31 07:17:47;;;;;;;1999.90;999.90;;;4.30;99.90;;;;;;4998607;28;20514;-83
2024/01/31 07:20:12;;;;;;;1999.90;999.90;;;4.30;99.90;;;;;;5011292;28;20092;-83
2024/01/31 07:22:38;;;;;;;1999.90;999.90;;;4.30;99.90;;;;;;5015791;28;20074;-83
2024/01/31 07:25:04;;;;;;;1999.90;999.90;;;4.30;99.90;;;;;;5015478;28;20046;-83
2024/01/31 07:27:30;;;;;;;1999.90;999.90;;;4.30;99.90;;;;;;4998433;28;20097;-83
2024/01/31 07:29:55;;;;;;;1999.90;999.90;;;4.40;99.90;;;;;;5015432;28;20038;-83
2024/01/31 07:32:21;;;;;;;1999.90;999.90;;;4.40;99.90;;;;;;4998679;28;20042;-83
2024/01/31 07:34:47;;;;;;;1999.90;999.90;;;4.40;99.90;;;;;;4999247;28;20034;-83
2024/01/31 07:37:12;;;;;;;1999.90;999.90;;;4.40;99.90;;;;;;4998959;28;20038;-83
2024/01/31 07:39:38;;;;;;;1999.90;999.90;;;4.40;99.90;;;;;;5015866;28;20125;-83
2024/01/31 07:42:04;;;;;;;1999.90;999.90;;;4.40;99.90;;;;;;5014854;28;20057;-83
2024/01/31 07:44:29;;;;;;;1999.90;999.90;;;4.40;99.90;;;;;;4998376;28;20105;-83
2024/01/31 07:46:55;;;;;;;1999.90;999.90;;;5.20;99.90;;;;;;5014945;28;20034;-83
2024/01/31 07:49:21;;;;;;;1999.90;999.90;;;4.40;99.90;;;;;;5015520;28;20042;-83
2024/01/31 07:51:46;;;;;;;1999.90;999.90;;;4.50;99.90;;;;;;5015662;28;20494;-83
2024/01/31 07:54:12;;;;;;;1999.90;999.90;;;4.50;99.90;;;;;;5016032;28;20084;-83
2024/01/31 07:56:38;;;;;;;1999.90;999.90;;;4.50;99.90;;;;;;4999168;28;20582;-83
2024/01/31 07:59:03;;;;;;;1999.90;999.90;;;4.50;99.90;;;;;;4998601;28;20045;-83
2024/01/31 08:01:29;;;;;;;1999.90;999.90;;;4.60;99.90;;;;;;5015226;28;20034;-83
2024/01/31 08:03:55;;;;;;;1999.90;999.90;;;4.60;99.90;;;;;;5015419;28;20101;-84
2024/01/31 08:06:21;;;;;;;1999.90;999.90;;;5.10;99.90;;;;;;4998931;28;20042;-84
2024/01/31 08:08:47;;;;;;;1999.90;999.90;;;4.60;99.90;;;;;;4998971;28;20056;-84
2024/01/31 08:11:12;;;;;;;1999.90;999.90;;;4.60;99.90;;;;;;5018695;28;20046;-83
2024/01/31 08:13:41;;;;;;;1999.90;999.90;;;4.70;99.90;;;;;;5022159;28;20038;-82
2024/01/31 08:16:07;;;;;;;1999.90;999.90;;;4.70;99.90;;;;;;5018201;28;20052;-82
2024/01/31 08:18:32;;;;;;;1999.90;999.90;;;5.70;99.90;;;;;;5001918;28;20109;-83
2024/01/31 08:20:58;;;;;;;1999.90;999.90;;;5.30;99.90;;;;;;5006080;28;20049;-82
2024/01/31 08:23:24;;;;;;;1999.90;999.90;;;5.50;99.90;;;;;;5005941;28;20045;-83
2024/01/31 08:25:50;;;;;;;1999.90;999.90;;;4.80;99.90;;;;;;5022283;28;20101;-82
2024/01/31 08:28:15;;;;;;;1999.90;999.90;;;4.80;99.90;;;;;;5006590;28;20044;-82
2024/01/31 08:30:41;;;;;;;1999.90;999.90;;;5.00;99.90;;;;;;5005658;28;20118;-82
2024/01/31 08:33:07;;;;;;;1999.90;999.90;;;5.20;99.90;;;;;;5005897;28;20089;-82
2024/01/31 08:35:32;;;;;;;1999.90;999.90;;;4.90;99.90;;;;;;5021296;28;20418;-82
2024/01/31 08:37:58;;;;;;;1999.90;999.90;;;4.90;99.90;;;;;;5005984;28;20053;-82
2024/01/31 08:40:24;;;;;;;1999.90;999.90;;;4.90;99.90;;;;;;5006693;28;20037;-83
2024/01/31 08:42:50;;;;;;;1999.90;999.90;;;5.00;99.90;;;;;;5005964;28;20041;-83
2024/01/31 08:45:15;;;;;;;1999.90;999.90;;;5.10;99.90;;;;;;5012828;28;20042;-82
2024/01/31 08:47:41;;;;;;;1999.90;999.90;;;5.10;99.90;;;;;;5022291;28;20557;-83
2024/01/31 08:50:07;;;;;;;1999.90;999.90;;;6.10;99.90;;;;;;5022028;28;20038;-83
2024/01/31 08:52:34;;;;;;;1999.90;999.90;;;5.20;99.90;;;;;;5005531;28;20044;-83
2024/01/31 08:54:59;;;;;;;1999.90;999.90;;;5.20;99.90;;;;;;5005828;28;20038;-82
2024/01/31 08:57:25;;;;;;;1999.90;999.90;;;6.00;99.90;;;;;;5005655;28;20041;-83
2024/01/31 08:59:51;;;;;;;1999.90;999.90;;;5.30;99.90;;;;;;5004481;28;20045;-82
2024/01/31 09:02:17;;;;;;;1999.90;999.90;;;5.70;99.90;;;;;;5004548;28;20038;-83
2024/01/31 09:04:42;;;;;;;1999.90;999.90;;;5.70;99.90;;;;;;5036456;28;20038;-83
2024/01/31 09:07:08;;;;;;;1999.90;999.90;;;5.50;99.90;;;;;;5019579;28;20030;-83
2024/01/31 09:09:38;;;;;;;1999.90;999.90;;;5.30;99.90;;;;;;5020624;28;20093;-82
2024/01/31 09:12:05;;;;;;;1999.90;999.90;;;4.90;99.90;;;;;;5020105;28;20072;-82
2024/01/31 09:14:32;;;;;;;1999.90;999.90;;;5.50;99.90;;;;;;5021898;28;20030;-82
2024/01/31 09:16:58;;;;;;;1999.90;999.90;;;5.90;99.90;;;;;;5006301;28;20090;-83
2024/01/31 09:19:23;;;;;;;1999.90;999.90;;;5.60;99.90;;;;;;5022443;28;20049;-82
2024/01/31 09:21:50;;;;;;;1999.90;999.90;;;5.80;99.90;;;;;;5008177;28;20101;-83
2024/01/31 09:24:16;;;;;;;1999.90;999.90;;;5.60;99.90;;;;;;5021757;28;20511;-83
2024/01/31 09:26:42;;;;;;;1999.90;999.90;;;6.00;99.90;;;;;;5005792;28;20117;-83
2024/01/31 09:29:07;;;;;;;1999.90;999.90;;;5.70;99.90;;;;;;5004926;28;20057;-82
2024/01/31 09:31:33;;;;;;;1999.90;999.90;;;6.70;99.90;;;;;;5021638;28;20513;-82
2024/01/31 09:33:58;;;;;;;1999.90;999.90;;;6.40;99.90;;;;;;5005057;28;20100;-82
2024/01/31 09:36:25;;;;;;;1999.90;999.90;;;6.90;99.90;;;;;;5005027;28;20064;-83
2024/01/31 09:38:51;;;;;;;1999.90;999.90;;;6.00;99.90;;;;;;5005067;28;20426;-84
2024/01/31 09:41:17;;;;;;;1999.90;999.90;;;6.00;99.90;;;;;;5009199;28;20038;-83
2024/01/31 09:43:44;;;;;;;1999.90;999.90;;;7.00;99.90;;;;;;5024812;28;20046;-83
2024/01/31 09:46:11;;;;;;;1999.90;999.90;;;7.10;99.90;;;;;;5007566;28;20188;-83
2024/01/31 09:48:37;;;;;;;1999.90;999.90;;;6.10;99.90;;;;;;5008823;28;20044;-82
2024/01/31 09:51:03;;;;;;;1999.90;999.90;;;6.20;99.90;;;;;;5008564;28;20045;-82
2024/01/31 09:53:36;;;;;;;1999.90;999.90;;;6.20;99.90;;;;;;5006855;28;20041;-82
2024/01/31 09:56:04;;;;;;;1999.90;999.90;;;6.20;99.90;;;;;;5006871;28;20107;-83
2024/01/31 09:58:30;;;;;;;1999.90;999.90;;;6.30;99.90;;;;;;5006700;28;20041;-82
2024/01/31 10:01:03;;;;;;;1999.90;999.90;;;6.30;99.90;;;;;;5023522;28;20067;-83
2024/01/31 10:03:30;;;;;;;1999.90;999.90;;;6.30;99.90;;;;;;5023441;28;20379;-82
2024/01/31 10:05:56;;;;;;;1999.90;999.90;;;6.30;99.90;;;;;;5006707;28;20084;-82
2024/01/31 10:08:21;;;;;;;1999.90;999.90;;;6.40;99.90;;;;;;5023326;28;20084;-82
2024/01/31 10:10:47;;;;;;;1999.90;999.90;;;6.40;99.90;;;;;;5023718;28;20037;-82
2024/01/31 10:13:14;;;;;;;1999.90;999.90;;;7.20;99.90;;;;;;5023283;28;20048;-82
2024/01/31 10:15:39;;;;;;;1999.90;999.90;;;6.50;99.90;;;;;;5006622;28;20042;-82
2024/01/31 10:18:06;;;;;;;1999.90;999.90;;;6.40;99.90;;;;;;5021970;28;20046;-82
2024/01/31 10:20:32;;;;;;;1999.90;999.90;;;6.50;99.90;;;;;;5005437;28;20038;-82
2024/01/31 10:23:01;;;;;;;1999.90;999.90;;;6.50;99.90;;;;;;5022618;28;20554;-82
2024/01/31 10:25:30;;;;;;;1999.90;999.90;;;6.50;99.90;;;;;;5022176;28;20317;-82
2024/01/31 10:27:56;;;;;;;1999.90;999.90;;;6.50;99.90;;;;;;5021433;28;20042;-82
2024/01/31 10:30:22;;;;;;;1999.90;999.90;;;6.60;99.90;;;;;;5005643;28;20128;-82
2024/01/31 10:32:48;;;;;;;1999.90;999.90;;;6.60;99.90;;;;;;5021169;28;20049;-81
2024/01/31 10:35:15;;;;;;;1999.90;999.90;;;6.90;99.90;;;;;;5005038;28;20408;-82
2024/01/31 10:37:41;;;;;;;1999.90;999.90;;;7.40;99.90;;;;;;5005701;28;20419;-82
2024/01/31 10:40:09;;;;;;;1999.90;999.90;;;6.80;99.90;;;;;;5005013;28;20061;-82
2024/01/31 10:42:35;;;;;;;1999.90;999.90;;;6.80;99.90;;;;;;5022325;28;20053;-82
2024/01/31 10:45:02;;;;;;;1999.90;999.90;;;6.80;99.90;;;;;;5020173;28;20060;-82
2024/01/31 10:47:28;;;;;;;1999.90;999.90;;;6.80;99.90;;;;;;5022079;28;20117;-82
2024/01/31 10:49:54;;;;;;;1999.90;999.90;;;6.80;99.90;;;;;;5005536;28;20076;-82
2024/01/31 10:52:23;;;;;;;1999.90;999.90;;;6.80;99.90;;;;;;4987451;28;20048;-82
2024/01/31 10:54:54;;;;;;;1999.90;999.90;;;7.70;99.90;;;;;;5007336;28;20073;-83
2024/01/31 10:57:20;;;;;;;1999.90;999.90;;;6.90;99.90;;;;;;5004030;28;20038;-83
2024/01/31 10:59:49;;;;;;;1999.90;999.90;;;7.50;99.90;;;;;;5008100;28;20118;-83
2024/01/31 11:02:15;;;;;;;1999.90;999.90;;;6.90;99.90;;;;;;5007101;28;20038;-83
2024/01/31 11:04:42;;;;;;;1999.90;999.90;;;6.90;99.90;;;;;;5037755;28;20073;-83
2024/01/31 11:07:21;;;;;;;1999.90;999.90;;;6.90;99.90;;;;;;5007840;28;20033;-84
2024/01/31 11:09:48;;;;;;;1999.90;999.90;;;7.40;99.90;;;;;;5024712;28;20066;-83
2024/01/31 11:12:15;;;;;;;1999.90;999.90;;;7.00;99.90;;;;;;5008354;28;20026;-83
2024/01/31 11:14:45;;;;;;;1999.90;999.90;;;7.00;99.90;;;;;;5023924;28;20053;-83
2024/01/31 11:17:26;;;;;;;1999.90;999.90;;;7.00;99.90;;;;;;5007261;28;20278;-83
2024/01/31 11:20:01;;;;;;;1999.90;999.90;;;7.00;99.90;;;;;;5007633;28;20037;-83
2024/01/31 11:22:28;;;;;;;1999.90;999.90;;;7.00;99.90;;;;;;5006968;28;20033;-83
2024/01/31 11:24:56;;;;;;;1999.90;999.90;;;8.10;99.90;;;;;;5006476;28;20040;-83
2024/01/31 11:27:22;;;;;;;1999.90;999.90;;;7.10;99.90;;;;;;5006469;28;20542;-82
2024/01/31 11:29:51;;;;;;;1999.90;999.90;;;7.60;99.90;;;;;;5008063;28;20040;-83
2024/01/31 11:32:25;;;;;;;1999.90;999.90;;;7.10;99.90;;;;;;5007279;28;20036;-82
2024/01/31 11:34:59;;;;;;;1999.90;999.90;;;7.20;99.90;;;;;;5017946;28;20046;-83
2024/01/31 11:37:25;;;;;;;1999.90;999.90;;;7.10;99.90;;;;;;5022271;28;20105;-82
2024/01/31 11:39:51;;;;;;;1999.90;999.90;;;7.70;99.90;;;;;;5022646;28;20124;-83
2024/01/31 11:42:16;;;;;;;1999.90;999.90;;;7.10;99.90;;;;;;5007240;28;20049;-83
2024/01/31 11:44:43;;;;;;;1999.90;999.90;;;7.10;99.90;;;;;;5006596;28;20042;-82
2024/01/31 11:47:11;;;;;;;1999.90;999.90;;;7.10;99.90;;;;;;5007022;28;20057;-83
2024/01/31 11:49:36;;;;;;;1999.90;999.90;;;7.50;99.90;;;;;;5006078;28;20072;-83
2024/01/31 11:52:03;;;;;;;1999.90;999.90;;;7.50;99.90;;;;;;5023179;28;20045;-82
2024/01/31 11:54:29;;;;;;;1999.90;999.90;;;7.10;99.90;;;;;;5006321;28;20196;-83
2024/01/31 11:56:57;;;;;;;1999.90;999.90;;;7.20;99.90;;;;;;5008470;28;20320;-83
2024/01/31 11:59:24;;;;;;;1999.90;999.90;;;7.10;99.90;;;;;;5024044;28;20034;-83
2024/01/31 12:01:49;;;;;;;1999.90;999.90;;;7.30;99.90;;;;;;5007092;28;20105;-83
2024/01/31 12:04:15;;;;;;;1999.90;999.90;;;7.10;99.90;;;;;;5007035;28;20041;-82
2024/01/31 12:06:41;;;;;;;1999.90;999.90;;;7.10;99.90;;;;;;5007422;28;20034;-83